createdAt,value
2023-05-19T00:01:13.657Z,11.40
2023-05-19T00:03:52.537Z,11.41
2023-05-19T00:06:26.940Z,11.38
2023-05-19T00:08:58.764Z,11.34
2023-05-19T00:11:29.676Z,11.29
2023-05-19T00:13:58.481Z,11.27
2023-05-19T00:16:34.550Z,11.24
2023-05-19T00:19:03.453Z,11.23
2023-05-19T00:21:31.404Z,11.26
2023-05-19T00:23:58.544Z,11.28
2023-05-19T00:26:27.109Z,11.29
2023-05-19T00:28:54.118Z,11.31
2023-05-19T00:31:20.740Z,11.32
2023-05-19T00:33:52.116Z,11.33
2023-05-19T00:36:18.765Z,11.33
2023-05-19T00:38:45.265Z,11.33
2023-05-19T00:41:12.140Z,11.33
2023-05-19T00:43:38.686Z,11.31
2023-05-19T00:46:05.436Z,11.28
2023-05-19T00:48:36.803Z,11.30
2023-05-19T00:51:06.495Z,11.30
2023-05-19T00:53:37.644Z,11.27
2023-05-19T00:56:04.499Z,11.27
2023-05-19T00:58:33.507Z,11.27
2023-05-19T01:01:04.248Z,11.27
2023-05-19T01:03:32.861Z,11.25
2023-05-19T01:06:04.969Z,11.21
2023-05-19T01:08:38.630Z,11.20
2023-05-19T01:11:06.929Z,11.19
2023-05-19T01:13:35.350Z,11.18
2023-05-19T01:16:12.580Z,11.15
2023-05-19T01:18:46.905Z,11.11
2023-05-19T01:21:13.989Z,11.07
2023-05-19T01:24:12.246Z,11.03
2023-05-19T01:27:00.134Z,11.03
2023-05-19T01:29:42.748Z,11.07
2023-05-19T01:32:10.686Z,11.00
2023-05-19T01:34:43.023Z,10.97
2023-05-19T01:37:10.019Z,10.90
2023-05-19T01:39:37.460Z,10.90
2023-05-19T01:42:07.798Z,10.88
2023-05-19T01:44:36.702Z,10.83
2023-05-19T01:47:07.309Z,10.79
2023-05-19T01:49:33.960Z,10.78
2023-05-19T01:52:00.579Z,10.79
2023-05-19T01:54:27.065Z,10.78
2023-05-19T01:57:23.401Z,10.79
2023-05-19T02:00:20.522Z,10.75
2023-05-19T02:03:12.708Z,10.72
2023-05-19T02:06:03.336Z,10.69
2023-05-19T02:09:11.229Z,10.65
2023-05-19T02:11:42.287Z,10.69
2023-05-19T02:14:29.757Z,10.69
2023-05-19T02:16:58.003Z,10.60
2023-05-19T02:19:27.120Z,10.50
2023-05-19T02:21:54.067Z,10.47
2023-05-19T02:24:22.782Z,10.54
2023-05-19T02:26:50.373Z,10.57
2023-05-19T02:29:17.248Z,10.52
2023-05-19T02:31:44.147Z,10.43
2023-05-19T02:34:10.727Z,10.30
2023-05-19T02:36:41.028Z,10.27
2023-05-19T02:39:07.605Z,10.32
2023-05-19T02:41:38.428Z,10.28
2023-05-19T02:44:05.766Z,10.27
2023-05-19T02:46:32.505Z,10.21
2023-05-19T02:49:00.009Z,10.14
2023-05-19T02:51:28.930Z,10.04
2023-05-19T02:53:55.567Z,9.98
2023-05-19T02:56:22.195Z,9.90
2023-05-19T02:58:48.847Z,9.87
2023-05-19T03:01:15.774Z,9.80
2023-05-19T03:03:44.418Z,9.78
2023-05-19T03:06:12.638Z,9.76
2023-05-19T03:08:40.837Z,9.76
2023-05-19T03:11:08.995Z,9.77
2023-05-19T03:13:35.716Z,9.73
2023-05-19T03:16:04.322Z,9.71
2023-05-19T03:18:33.824Z,9.71
2023-05-19T03:21:00.994Z,9.69
2023-05-19T03:23:28.152Z,9.63
2023-05-19T03:25:56.120Z,9.57
2023-05-19T03:28:27.376Z,9.53
2023-05-19T03:30:58.625Z,9.53
2023-05-19T03:33:25.308Z,9.50
2023-05-19T03:35:53.096Z,9.49
2023-05-19T03:38:19.600Z,9.46
2023-05-19T03:40:46.326Z,9.45
2023-05-19T03:43:13.277Z,9.48
2023-05-19T03:45:40.045Z,9.46
2023-05-19T03:48:06.763Z,9.49
2023-05-19T03:50:34.131Z,9.48
2023-05-19T03:53:01.050Z,9.47
2023-05-19T03:55:30.700Z,9.48
2023-05-19T03:57:57.383Z,9.53
2023-05-19T04:00:24.213Z,9.55
2023-05-19T04:02:51.381Z,9.56
2023-05-19T04:05:18.075Z,9.58
2023-05-19T04:07:46.727Z,9.60
2023-05-19T04:10:13.897Z,9.62
2023-05-19T04:12:40.734Z,9.63
2023-05-19T04:15:07.983Z,9.70
2023-05-19T04:17:34.604Z,9.76
2023-05-19T04:20:01.472Z,9.81
2023-05-19T04:22:34.502Z,9.80
2023-05-19T04:25:01.799Z,9.83
2023-05-19T04:27:30.009Z,9.85
2023-05-19T04:29:56.597Z,9.89
2023-05-19T04:32:23.373Z,9.93
2023-05-19T04:34:50.222Z,9.99
2023-05-19T04:37:16.816Z,9.98
2023-05-19T04:39:45.239Z,9.97
2023-05-19T04:42:12.068Z,9.95
2023-05-19T04:44:40.261Z,9.95
2023-05-19T04:47:10.434Z,9.95
2023-05-19T04:49:39.934Z,9.99
2023-05-19T04:52:07.998Z,10.05
2023-05-19T04:54:35.251Z,10.12
2023-05-19T04:57:05.862Z,10.18
2023-05-19T04:59:32.613Z,10.22
2023-05-19T05:01:59.202Z,10.31
2023-05-19T05:04:26.033Z,10.38
2023-05-19T05:06:52.759Z,10.46
2023-05-19T05:09:20.051Z,10.58
2023-05-19T05:11:47.033Z,10.65
2023-05-19T05:14:13.849Z,10.76
2023-05-19T05:16:40.908Z,10.86
2023-05-19T05:19:10.100Z,10.97
2023-05-19T05:21:37.075Z,11.07
2023-05-19T05:24:06.365Z,11.23
2023-05-19T05:26:34.532Z,11.41
2023-05-19T05:29:01.663Z,11.55
2023-05-19T05:31:28.233Z,11.73
2023-05-19T05:33:54.788Z,11.87
2023-05-19T05:36:21.432Z,12.19
2023-05-19T05:38:48.119Z,12.60
2023-05-19T05:41:16.983Z,12.98
2023-05-19T05:43:43.583Z,13.33
2023-05-19T05:46:10.243Z,13.75
2023-05-19T05:48:37.182Z,13.96
2023-05-19T05:51:04.185Z,14.31
2023-05-19T05:53:36.013Z,14.45
2023-05-19T05:56:02.759Z,14.77
2023-05-19T05:58:29.304Z,14.79
2023-05-19T06:00:58.089Z,14.92
2023-05-19T06:03:24.782Z,15.11
2023-05-19T06:05:51.790Z,15.23
2023-05-19T06:08:18.488Z,15.15
2023-05-19T06:10:47.235Z,15.59
2023-05-19T06:13:16.303Z,16.16
2023-05-19T06:15:42.878Z,15.67
2023-05-19T06:18:13.044Z,15.75
2023-05-19T06:20:39.580Z,15.72
2023-05-19T06:23:06.106Z,15.55
2023-05-19T06:25:39.269Z,15.66
2023-05-19T06:28:06.106Z,14.86
2023-05-19T06:30:33.072Z,14.89
2023-05-19T06:32:59.870Z,15.04
2023-05-19T06:35:26.569Z,14.66
2023-05-19T06:37:56.358Z,14.89
2023-05-19T06:40:23.254Z,15.04
2023-05-19T06:42:49.839Z,15.12
2023-05-19T06:45:16.686Z,15.18
2023-05-19T06:47:44.544Z,15.04
2023-05-19T06:50:11.199Z,15.16
2023-05-19T06:52:41.497Z,15.27
2023-05-19T06:55:08.303Z,15.74
2023-05-19T06:57:34.974Z,15.63
2023-05-19T07:00:01.651Z,15.73
2023-05-19T07:02:28.379Z,16.12
2023-05-19T07:04:55.026Z,16.24
2023-05-19T07:07:21.603Z,16.45
2023-05-19T07:09:48.281Z,16.77
2023-05-19T07:12:14.772Z,16.28
2023-05-19T07:14:41.328Z,16.27
2023-05-19T07:17:07.860Z,16.40
2023-05-19T07:19:34.359Z,16.42
2023-05-19T07:22:01.009Z,16.62
2023-05-19T07:24:27.668Z,17.16
2023-05-19T07:26:56.473Z,16.97
2023-05-19T07:29:23.254Z,16.80
2023-05-19T07:31:54.257Z,16.46
2023-05-19T07:34:21.963Z,16.49
2023-05-19T07:36:48.496Z,16.29
2023-05-19T07:39:15.056Z,16.71
2023-05-19T07:41:44.204Z,16.58
2023-05-19T07:44:10.925Z,16.73
2023-05-19T07:46:37.965Z,16.71
2023-05-19T07:49:04.664Z,16.49
2023-05-19T07:51:31.827Z,16.33
2023-05-19T07:54:02.305Z,16.29
2023-05-19T07:56:29.748Z,16.20
2023-05-19T07:58:56.266Z,16.33
2023-05-19T08:01:23.085Z,16.49
2023-05-19T08:03:49.787Z,16.60
2023-05-19T08:06:16.531Z,16.75
2023-05-19T08:08:43.159Z,16.80
2023-05-19T08:11:12.049Z,16.73
2023-05-19T08:13:38.599Z,17.10
2023-05-19T08:16:05.533Z,17.38
2023-05-19T08:21:22.563Z,17.07
2023-05-19T08:23:52.411Z,17.10
2023-05-19T08:26:19.137Z,17.09
2023-05-19T08:28:46.028Z,17.21
2023-05-19T08:31:12.620Z,17.29
2023-05-19T08:33:39.297Z,17.40
2023-05-19T08:36:06.681Z,17.62
2023-05-19T08:38:33.428Z,17.64
2023-05-19T08:41:00.150Z,17.59
2023-05-19T08:43:26.766Z,17.77
2023-05-19T08:45:54.199Z,17.28
2023-05-19T08:48:23.129Z,17.14
2023-05-19T08:51:01.369Z,16.97
2023-05-19T08:53:36.742Z,17.66
2023-05-19T08:56:13.325Z,17.95
2023-05-19T08:58:42.562Z,18.02
2023-05-19T09:01:10.037Z,17.94
2023-05-19T09:03:39.263Z,17.60
2023-05-19T09:06:07.818Z,17.60
2023-05-19T09:08:35.115Z,17.41
2023-05-19T09:11:01.690Z,17.14
2023-05-19T09:13:28.373Z,16.87
2023-05-19T09:15:57.807Z,17.12
2023-05-19T09:18:28.391Z,17.09
2023-05-19T09:21:02.525Z,16.80
2023-05-19T09:23:33.535Z,17.00
2023-05-19T09:26:07.425Z,17.10
2023-05-19T09:28:36.469Z,17.32
2023-05-19T09:34:00.261Z,17.73
2023-05-19T09:36:29.653Z,17.73
2023-05-19T09:38:56.243Z,17.35
2023-05-19T09:41:23.592Z,17.07
2023-05-19T09:43:56.606Z,17.51
2023-05-19T09:46:29.031Z,17.43
2023-05-19T09:48:59.126Z,17.75
2023-05-19T09:51:25.825Z,17.79
2023-05-19T09:53:53.249Z,18.01
2023-05-19T09:56:23.747Z,18.23
2023-05-19T09:58:52.518Z,17.84
2023-05-19T10:01:19.539Z,17.84
2023-05-19T10:03:46.357Z,17.66
2023-05-19T10:06:15.617Z,17.67
2023-05-19T10:08:42.703Z,17.67
2023-05-19T10:11:11.338Z,17.88
2023-05-19T10:13:39.116Z,17.94
2023-05-19T10:16:06.742Z,18.12
2023-05-19T10:18:33.694Z,17.85
2023-05-19T10:21:00.755Z,18.18
2023-05-19T10:23:27.508Z,18.12
2023-05-19T10:25:56.976Z,18.24
2023-05-19T10:28:28.127Z,18.40
2023-05-19T10:30:58.758Z,18.24
2023-05-19T10:33:42.827Z,18.45
2023-05-19T10:36:45.881Z,18.69
2023-05-19T10:39:25.352Z,18.42
2023-05-19T10:42:20.684Z,18.86
2023-05-19T10:45:05.837Z,18.98
2023-05-19T10:47:33.710Z,18.99
2023-05-19T10:50:06.809Z,18.51
2023-05-19T10:52:37.457Z,18.32
2023-05-19T10:55:04.909Z,18.24
2023-05-19T10:57:34.716Z,18.23
2023-05-19T11:00:27.586Z,18.30
2023-05-19T11:02:57.607Z,18.42
2023-05-19T11:05:30.535Z,17.95
2023-05-19T11:08:06.229Z,18.09
2023-05-19T11:10:32.845Z,18.74
2023-05-19T11:13:00.020Z,18.45
2023-05-19T11:15:27.839Z,18.60
2023-05-19T11:17:58.652Z,18.74
2023-05-19T11:20:27.071Z,19.15
2023-05-19T11:23:06.927Z,18.63
2023-05-19T11:25:48.199Z,18.27
2023-05-19T11:28:26.363Z,18.04
2023-05-19T11:30:54.997Z,17.90
2023-05-19T11:33:27.374Z,18.13
2023-05-19T11:35:58.101Z,18.46
2023-05-19T11:38:29.661Z,18.50
2023-05-19T11:40:56.645Z,18.44
2023-05-19T11:43:26.776Z,18.02
2023-05-19T11:45:55.053Z,17.72
2023-05-19T11:48:22.548Z,17.52
2023-05-19T11:50:49.939Z,17.37
2023-05-19T11:53:16.983Z,17.23
2023-05-19T11:55:46.968Z,17.21
2023-05-19T11:58:14.462Z,17.04
2023-05-19T12:00:45.966Z,16.90
2023-05-19T12:03:13.368Z,16.93
2023-05-19T12:05:45.670Z,17.07
2023-05-19T12:08:13.082Z,17.20
2023-05-19T12:10:39.974Z,17.23
2023-05-19T12:13:09.619Z,17.34
2023-05-19T12:15:36.862Z,17.39
2023-05-19T12:18:03.952Z,17.46
2023-05-19T12:20:32.604Z,17.49
2023-05-19T12:23:00.573Z,17.48
2023-05-19T12:25:28.579Z,17.52
2023-05-19T12:28:00.777Z,17.57
2023-05-19T12:30:31.590Z,17.62
2023-05-19T12:32:58.724Z,17.46
2023-05-19T12:35:36.323Z,17.50
2023-05-19T12:38:06.920Z,17.52
2023-05-19T12:40:41.304Z,17.49
2023-05-19T12:43:09.679Z,17.47
2023-05-19T12:45:37.389Z,17.41
2023-05-19T12:48:06.583Z,17.33
2023-05-19T12:50:34.373Z,17.28
2023-05-19T12:53:01.496Z,17.15
2023-05-19T12:55:28.276Z,17.14
2023-05-19T12:58:00.644Z,17.14
2023-05-19T13:00:32.543Z,17.08
2023-05-19T13:03:07.474Z,17.02
2023-05-19T13:05:37.928Z,17.01
2023-05-19T13:08:11.649Z,16.97
2023-05-19T13:10:39.463Z,16.96
2023-05-19T13:13:08.691Z,16.98
2023-05-19T13:15:39.432Z,16.97
2023-05-19T13:18:08.808Z,16.89
2023-05-19T13:20:37.080Z,16.89
2023-05-19T13:23:04.929Z,16.88
2023-05-19T13:25:34.155Z,16.76
2023-05-19T13:28:03.828Z,16.73
2023-05-19T13:30:30.762Z,16.66
2023-05-19T13:32:59.277Z,16.72
2023-05-19T13:35:26.111Z,16.67
2023-05-19T13:37:52.675Z,16.63
2023-05-19T13:40:19.386Z,16.66
2023-05-19T13:42:46.447Z,16.62
2023-05-19T13:45:13.959Z,16.60
2023-05-19T13:47:40.714Z,16.67
2023-05-19T13:50:07.675Z,16.71
2023-05-19T13:52:34.288Z,16.70
2023-05-19T13:55:00.777Z,16.65
2023-05-19T13:57:27.545Z,16.60
2023-05-19T14:00:02.656Z,16.54
2023-05-19T14:02:30.670Z,16.58
2023-05-19T14:04:57.715Z,16.57
2023-05-19T14:07:25.604Z,16.53
2023-05-19T14:09:52.603Z,16.41
2023-05-19T14:12:20.227Z,16.35
2023-05-19T14:14:50.196Z,16.21
2023-05-19T14:17:16.794Z,16.11
2023-05-19T14:19:43.307Z,16.03
2023-05-19T14:22:09.947Z,15.91
2023-05-19T14:24:36.504Z,15.87
2023-05-19T14:27:05.041Z,15.88
2023-05-19T14:29:31.638Z,15.87
2023-05-19T14:31:58.252Z,15.87
2023-05-19T14:34:24.950Z,15.91
2023-05-19T14:36:51.655Z,15.94
2023-05-19T14:39:21.720Z,15.87
2023-05-19T14:41:51.008Z,15.80
2023-05-19T14:44:17.723Z,15.85
2023-05-19T14:46:44.257Z,15.81
2023-05-19T14:49:12.598Z,15.74
2023-05-19T14:51:39.113Z,15.68
2023-05-19T14:54:05.826Z,15.65
2023-05-19T14:56:32.402Z,15.68
2023-05-19T14:58:59.022Z,15.70
2023-05-19T15:01:25.945Z,15.67
2023-05-19T15:03:52.625Z,15.63
2023-05-19T15:06:19.282Z,15.60
2023-05-19T15:08:45.960Z,15.60
2023-05-19T15:11:12.561Z,15.52
2023-05-19T15:13:39.371Z,15.45
2023-05-19T15:16:17.454Z,15.44
2023-05-19T15:18:51.490Z,15.42
2023-05-19T15:21:18.165Z,15.42
2023-05-19T15:23:44.827Z,15.36
2023-05-19T15:26:11.424Z,15.35
2023-05-19T15:28:38.019Z,15.36
2023-05-19T15:31:04.652Z,15.29
2023-05-19T15:33:31.178Z,15.23
2023-05-19T15:35:57.674Z,15.17
2023-05-19T15:38:24.251Z,15.15
2023-05-19T15:40:51.177Z,15.10
2023-05-19T15:43:21.803Z,15.09
2023-05-19T15:45:50.148Z,15.08
2023-05-19T15:48:16.733Z,15.09
2023-05-19T15:50:43.322Z,15.08
2023-05-19T15:53:11.018Z,15.06
2023-05-19T15:55:39.977Z,15.07
2023-05-19T15:58:07.698Z,15.09
2023-05-19T16:00:34.628Z,15.10
2023-05-19T16:03:01.310Z,15.11
2023-05-19T16:05:27.963Z,15.10
2023-05-19T16:07:56.870Z,15.08
2023-05-19T16:10:23.443Z,15.06
2023-05-19T16:12:49.991Z,15.00
2023-05-19T16:15:21.128Z,14.95
2023-05-19T16:17:47.681Z,14.89
2023-05-19T16:20:16.349Z,14.85
2023-05-19T16:22:42.867Z,14.81
2023-05-19T16:25:09.710Z,14.75
2023-05-19T16:27:36.293Z,14.73
2023-05-19T16:30:03.384Z,14.71
2023-05-19T16:32:33.998Z,14.68
2023-05-19T16:35:00.716Z,14.68
2023-05-19T16:37:27.229Z,14.66
2023-05-19T16:39:53.746Z,14.66
2023-05-19T16:42:20.212Z,14.64
2023-05-19T16:44:47.044Z,14.62
2023-05-19T16:47:15.327Z,14.60
2023-05-19T16:49:41.973Z,14.57
2023-05-19T16:52:08.449Z,14.56
2023-05-19T16:54:35.316Z,14.55
2023-05-19T16:57:04.223Z,14.53
2023-05-19T16:59:30.738Z,14.52
2023-05-19T17:01:57.281Z,14.49
2023-05-19T17:04:24.150Z,14.47
2023-05-19T17:06:51.042Z,14.46
2023-05-19T17:09:18.222Z,14.45
2023-05-19T17:11:44.757Z,14.43
2023-05-19T17:14:11.645Z,14.44
2023-05-19T17:16:38.375Z,14.42
2023-05-19T17:19:04.916Z,14.40
2023-05-19T17:21:31.909Z,14.43
2023-05-19T17:23:58.477Z,14.43
2023-05-19T17:26:25.288Z,14.40
2023-05-19T17:28:51.840Z,14.38
2023-05-19T17:31:18.387Z,14.35
2023-05-19T17:33:45.124Z,14.33
2023-05-19T17:36:14.004Z,14.30
2023-05-19T17:38:42.004Z,14.28
2023-05-19T17:41:13.985Z,14.27
2023-05-19T17:43:41.364Z,14.28
2023-05-19T17:46:08.713Z,14.28
2023-05-19T17:48:40.597Z,14.27
2023-05-19T17:51:07.499Z,14.22
2023-05-19T17:53:34.616Z,14.20
2023-05-19T17:56:05.220Z,14.21
2023-05-19T17:58:32.168Z,14.17
2023-05-19T18:01:01.093Z,14.15
2023-05-19T18:03:28.153Z,14.14
2023-05-19T18:05:55.006Z,14.15
2023-05-19T18:08:21.770Z,14.09
2023-05-19T18:10:53.110Z,14.08
2023-05-19T18:13:19.859Z,14.08
2023-05-19T18:15:46.749Z,14.04
2023-05-19T18:18:13.326Z,14.01
2023-05-19T18:20:41.274Z,14.00
2023-05-19T18:23:07.839Z,13.97
2023-05-19T18:25:37.554Z,13.95
2023-05-19T18:28:04.172Z,13.92
2023-05-19T18:30:30.801Z,13.90
2023-05-19T18:32:57.577Z,13.89
2023-05-19T18:35:24.127Z,13.88
2023-05-19T18:37:58.015Z,13.89
2023-05-19T18:40:26.450Z,13.86
2023-05-19T18:42:52.981Z,13.85
2023-05-19T18:45:19.570Z,13.84
2023-05-19T18:47:46.748Z,13.84
2023-05-19T18:50:15.438Z,13.85
2023-05-19T18:52:41.967Z,13.81
2023-05-19T18:55:10.838Z,13.79
2023-05-19T18:57:37.401Z,13.74
2023-05-19T19:00:04.380Z,13.69
2023-05-19T19:02:41.877Z,13.68
2023-05-19T19:05:11.538Z,13.65
2023-05-19T19:07:43.143Z,13.64
2023-05-19T19:10:10.991Z,13.62
2023-05-19T19:12:37.657Z,13.61
2023-05-19T19:15:09.613Z,13.60
2023-05-19T19:17:40.541Z,13.58
2023-05-19T19:20:08.306Z,13.56
2023-05-19T19:22:35.005Z,13.49
2023-05-19T19:25:01.585Z,13.47
2023-05-19T19:27:31.100Z,13.43
2023-05-19T19:29:58.699Z,13.41
2023-05-19T19:32:25.816Z,13.42
2023-05-19T19:34:55.455Z,13.41
2023-05-19T19:37:21.966Z,13.41
2023-05-19T19:39:50.239Z,13.40
2023-05-19T19:42:18.998Z,13.38
2023-05-19T19:44:45.689Z,13.36
2023-05-19T19:47:12.480Z,13.37
2023-05-19T19:49:39.004Z,13.32
2023-05-19T19:52:05.851Z,13.27
2023-05-19T19:54:32.732Z,13.24
2023-05-19T19:56:59.276Z,13.22
2023-05-19T19:59:26.962Z,13.18
2023-05-19T20:01:55.856Z,13.16
2023-05-19T20:04:22.631Z,13.15
2023-05-19T20:06:49.829Z,13.14
2023-05-19T20:09:16.627Z,13.14
2023-05-19T20:11:43.627Z,13.13
2023-05-19T20:14:10.207Z,13.10
2023-05-19T20:16:36.902Z,13.10
2023-05-19T20:19:03.561Z,13.07
2023-05-19T20:21:30.596Z,13.05
2023-05-19T20:23:59.269Z,13.06
2023-05-19T20:26:25.856Z,13.05
2023-05-19T20:28:52.435Z,13.03
2023-05-19T20:31:20.757Z,13.02
2023-05-19T20:33:48.006Z,13.04
2023-05-19T20:36:14.586Z,13.08
2023-05-19T20:38:41.220Z,13.07
2023-05-19T20:41:07.921Z,13.05
2023-05-19T20:43:34.686Z,13.04
2023-05-19T20:46:07.448Z,13.04
2023-05-19T20:48:34.064Z,13.03
2023-05-19T20:51:00.753Z,13.04
2023-05-19T20:53:27.565Z,13.03
2023-05-19T20:55:54.335Z,13.02
2023-05-19T20:58:21.281Z,13.00
2023-05-19T21:00:55.342Z,12.99
2023-05-19T21:03:23.586Z,12.97
2023-05-19T21:05:50.462Z,13.00
2023-05-19T21:08:18.853Z,12.99
2023-05-19T21:10:45.462Z,13.00
2023-05-19T21:13:12.268Z,12.99
2023-05-19T21:15:38.813Z,12.98
2023-05-19T21:18:06.704Z,12.94
2023-05-19T21:20:33.795Z,12.92
2023-05-19T21:23:00.624Z,12.87
2023-05-19T21:25:27.962Z,12.87
2023-05-19T21:27:56.062Z,12.85
2023-05-19T21:30:25.309Z,12.85
2023-05-19T21:32:52.229Z,12.85
2023-05-19T21:35:18.872Z,12.82
2023-05-19T21:37:47.256Z,12.82
2023-05-19T21:40:14.000Z,12.83
2023-05-19T21:42:40.545Z,12.87
2023-05-19T21:45:07.603Z,12.90
2023-05-19T21:47:34.185Z,12.92
2023-05-19T21:50:00.989Z,12.94
2023-05-19T21:52:29.389Z,12.95
2023-05-19T21:54:56.218Z,12.96
2023-05-19T21:57:24.844Z,12.93
2023-05-19T21:59:51.408Z,12.91
2023-05-19T22:02:17.967Z,12.93
2023-05-19T22:04:44.865Z,12.96
2023-05-19T22:07:13.232Z,12.96
2023-05-19T22:09:42.182Z,12.93
2023-05-19T22:12:08.854Z,12.88
2023-05-19T22:14:37.674Z,12.83
2023-05-19T22:17:04.439Z,12.83
2023-05-19T22:19:31.107Z,12.81
2023-05-19T22:22:13.853Z,12.80
2023-05-19T22:24:41.441Z,12.81
2023-05-19T22:27:08.591Z,12.80
2023-05-19T22:29:38.679Z,12.73
2023-05-19T22:32:13.603Z,12.70
2023-05-19T22:34:40.271Z,12.70
2023-05-19T22:37:07.188Z,12.69
2023-05-19T22:39:33.898Z,12.66
2023-05-19T22:42:00.516Z,12.60
2023-05-19T22:44:27.244Z,12.64
2023-05-19T22:46:56.474Z,12.64
2023-05-19T22:49:22.996Z,12.63
2023-05-19T22:51:49.933Z,12.65
2023-05-19T22:54:18.295Z,12.68
2023-05-19T22:56:46.448Z,12.67
2023-05-19T22:59:17.792Z,12.69
2023-05-19T23:01:48.554Z,12.64
2023-05-19T23:04:15.306Z,12.63
2023-05-19T23:06:47.211Z,12.63
2023-05-19T23:09:21.509Z,12.62
2023-05-19T23:11:48.084Z,12.60
2023-05-19T23:14:14.664Z,12.58
2023-05-19T23:16:43.580Z,12.49
2023-05-19T23:19:10.187Z,12.46
2023-05-19T23:21:36.751Z,12.43
2023-05-19T23:24:03.638Z,12.46
2023-05-19T23:26:30.360Z,12.43
2023-05-19T23:28:56.914Z,12.42
2023-05-19T23:31:25.403Z,12.45
2023-05-19T23:33:51.971Z,12.51
2023-05-19T23:36:19.244Z,12.53
2023-05-19T23:38:47.909Z,12.50
2023-05-19T23:41:14.847Z,12.51
2023-05-19T23:43:41.349Z,12.54
2023-05-19T23:46:09.743Z,12.52
2023-05-19T23:48:36.733Z,12.52
2023-05-19T23:51:03.709Z,12.52
2023-05-19T23:53:30.371Z,12.49
2023-05-19T23:55:58.686Z,12.51
2023-05-19T23:58:25.442Z,12.47
